Time;durP1;ratioP1;P1;durP2;ratioP2;P2;SDS_P1;SDS_P2;PMS_P1;PMS_P2;Temp;Humidity;BMP_temperature;BMP_pressure;BME280_temperature;BME280_humidity;BME280_pressure;Samples;Min_cycle;Max_cycle;Signal;HPM_P1;HPM_P2
2022/04/11 00:00:23;;;;;;;10.07;5.67;;;2.10;99.90;;;;;;5075275;28;20058;-68
2022/04/11 00:02:49;;;;;;;14.15;4.93;;;;;;;;;;5094102;28;20305;-68
2022/04/11 00:05:15;;;;;;;15.82;5.00;;;2.50;99.90;;;;;;5094205;28;20040;-68
2022/04/11 00:07:41;;;;;;;9.60;5.03;;;;;;;;;;5094050;28;20047;-68
2022/04/11 00:10:08;;;;;;;11.55;5.03;;;;;;;;;;5094000;28;20048;-68
2022/04/11 00:12:34;;;;;;;7.72;4.45;;;2.30;99.90;;;;;;5093981;28;20056;-68
2022/04/11 00:15:00;;;;;;;;;;;2.20;99.90;;;;;;5094277;28;20504;-68
2022/04/11 00:17:26;;;;;;;14.48;5.10;;;2.20;99.90;;;;;;5075497;28;20016;-68
2022/04/11 00:19:51;;;;;;;10.82;5.25;;;2.00;99.90;;;;;;5093835;28;20040;-68
2022/04/11 00:22:17;;;;;;;11.02;4.90;;;2.00;99.90;;;;;;5075665;28;20067;-68
2022/04/11 00:24:43;;;;;;;13.10;5.17;;;2.00;99.90;;;;;;5093756;28;20047;-68
2022/04/11 00:27:08;;;;;;;11.77;5.37;;;2.20;99.90;;;;;;5094042;28;20716;-68
2022/04/11 00:29:34;;;;;;;8.00;5.10;;;2.00;99.90;;;;;;5093696;28;20282;-68
2022/04/11 00:31:59;;;;;;;12.30;5.17;;;2.20;99.90;;;;;;5075550;28;20285;-69
2022/04/11 00:34:25;;;;;;;12.93;5.07;;;1.70;99.90;;;;;;5093634;28;20102;-69
2022/04/11 00:36:51;;;;;;;9.75;5.00;;;;;;;;;;5093454;28;20400;-68
2022/04/11 00:39:17;;;;;;;11.65;6.00;;;1.70;99.90;;;;;;5070097;28;20060;-68
2022/04/11 00:41:43;;;;;;;6.73;5.13;;;;;;;;;;5055391;28;20052;-68
2022/04/11 00:44:09;;;;;;;13.77;5.38;;;;;;;;;;5073078;28;20370;-68
2022/04/11 00:46:35;;;;;;;15.13;5.97;;;;;;;;;;5073059;28;20098;-68
2022/04/11 00:49:01;;;;;;;9.50;5.43;;;1.50;99.90;;;;;;5073072;28;20048;-68
2022/04/11 00:51:26;;;;;;;9.75;6.25;;;1.90;99.90;;;;;;5072673;28;20394;-67
2022/04/11 00:53:55;;;;;;;9.60;5.93;;;1.50;99.90;;;;;;5073001;28;20041;-68
2022/04/11 00:56:21;;;;;;;16.13;5.97;;;1.80;99.90;;;;;;5072820;28;20055;-68
2022/04/11 00:58:47;;;;;;;12.82;5.72;;;1.90;99.90;;;;;;5055251;28;20362;-68
2022/04/11 01:01:14;;;;;;;;;;;2.00;99.90;;;;;;5073267;28;20040;-68
2022/04/11 01:03:39;;;;;;;13.03;5.43;;;2.00;99.90;;;;;;5072797;28;19935;-68
2022/04/11 01:06:07;;;;;;;13.07;6.35;;;;;;;;;;5055143;28;20052;-68
2022/04/11 01:08:34;;;;;;;13.55;6.45;;;1.70;99.90;;;;;;5072711;28;20059;-67
2022/04/11 01:11:02;;;;;;;8.68;5.75;;;2.00;99.90;;;;;;5072701;28;20056;-68
2022/04/11 01:13:29;;;;;;;12.50;6.65;;;1.80;99.90;;;;;;5054411;28;20059;-68
2022/04/11 01:16:00;;;;;;;12.30;6.13;;;1.80;99.90;;;;;;5072586;28;20131;-68
2022/04/11 01:18:26;;;;;;;13.07;5.50;;;;;;;;;;5072710;28;20377;-69
2022/04/11 01:20:52;;;;;;;10.88;5.93;;;;;;;;;;5054986;28;20059;-68
2022/04/11 01:23:18;;;;;;;12.98;5.57;;;1.90;99.90;;;;;;5072643;28;20052;-68
2022/04/11 01:25:51;;;;;;;12.65;5.68;;;;;;;;;;5072599;28;20124;-68
2022/04/11 01:28:18;;;;;;;11.02;5.40;;;;;;;;;;5072262;28;20523;-68
2022/04/11 01:30:43;;;;;;;;;;;1.30;99.90;;;;;;5072606;28;20493;-68
2022/04/11 01:33:20;;;;;;;14.45;5.57;;;;;;;;;;5072497;28;19928;-68
2022/04/11 01:35:46;;;;;;;10.32;5.25;;;;;;;;;;5072469;28;20396;-68
2022/04/11 01:38:12;;;;;;;9.88;5.40;;;1.70;99.90;;;;;;5072456;28;20048;-68
2022/04/11 01:40:55;;;;;;;10.93;6.00;;;1.30;99.90;;;;;;5088437;28;20109;-68
2022/04/11 01:43:23;;;;;;;13.35;5.70;;;1.30;99.90;;;;;;5092691;28;20404;-69
2022/04/11 01:45:49;;;;;;;14.75;6.40;;;1.50;99.90;;;;;;5092543;28;20140;-68
2022/04/11 01:48:15;;;;;;;9.95;6.18;;;;;;;;;;5058036;28;20070;-68
2022/04/11 01:50:41;;;;;;;13.57;5.60;;;;;;;;;;5092568;28;20142;-69
2022/04/11 01:53:09;;;;;;;16.25;6.45;;;1.70;99.90;;;;;;5092619;28;20090;-69
2022/04/11 01:55:35;;;;;;;11.70;5.85;;;;;;;;;;5092347;28;20058;-68
2022/04/11 01:58:05;;;;;;;14.50;6.35;;;1.50;99.90;;;;;;5092438;28;20052;-68
2022/04/11 02:00:32;;;;;;;12.80;6.05;;;1.60;99.90;;;;;;5092431;28;20048;-68
2022/04/11 02:02:59;;;;;;;10.88;5.75;;;1.90;99.90;;;;;;5074510;28;20472;-68
2022/04/11 02:05:25;;;;;;;13.23;5.68;;;;;;;;;;5092395;28;20048;-68
2022/04/11 02:07:51;;;;;;;;;;;;;;;;;;5092799;28;20052;-69
2022/04/11 02:10:17;;;;;;;12.38;5.82;;;;;;;;;;5092409;28;20061;-68
2022/04/11 02:12:44;;;;;;;12.55;6.22;;;;;;;;;;5092297;28;20047;-68
2022/04/11 02:15:10;;;;;;;14.85;6.28;;;;;;;;;;5074199;28;20044;-68
2022/04/11 02:17:36;;;;;;;13.18;5.63;;;;;;;;;;5092305;28;20131;-69
2022/04/11 02:20:03;;;;;;;9.27;5.50;;;1.70;99.90;;;;;;5092287;28;20049;-68
2022/04/11 02:22:29;;;;;;;;;;;1.50;99.90;;;;;;5092596;28;20063;-68
2022/04/11 02:24:55;;;;;;;9.88;5.22;;;1.60;99.90;;;;;;5094585;28;19924;-68
2022/04/11 02:27:21;;;;;;;9.55;5.38;;;;;;;;;;5078111;28;20052;-68
2022/04/11 02:29:47;;;;;;;12.32;5.85;;;1.50;99.90;;;;;;5095972;28;20043;-68
2022/04/11 02:32:13;;;;;;;12.33;6.23;;;;;;;;;;5077919;28;20040;-68
2022/04/11 02:34:39;;;;;;;11.88;5.65;;;;;;;;;;5077666;28;20055;-68
2022/04/11 02:37:04;;;;;;;9.50;5.18;;;1.50;99.90;;;;;;5077934;28;20094;-67
2022/04/11 02:39:30;;;;;;;10.68;5.30;;;1.50;99.90;;;;;;5095666;28;20502;-68
2022/04/11 02:41:56;;;;;;;14.00;5.53;;;;;;;;;;5077631;28;20066;-68
2022/04/11 02:44:22;;;;;;;10.63;5.60;;;1.60;99.90;;;;;;5095766;28;20048;-68
2022/04/11 02:46:47;;;;;;;9.83;5.63;;;1.40;99.90;;;;;;5095706;28;20361;-68
2022/04/11 02:49:13;;;;;;;9.13;5.78;;;1.30;99.90;;;;;;5095646;28;20365;-68
2022/04/11 02:51:39;;;;;;;9.63;6.28;;;1.40;99.90;;;;;;5095513;28;20436;-68
2022/04/11 02:54:07;;;;;;;8.57;5.43;;;1.40;99.90;;;;;;5077450;28;20043;-67
2022/04/11 02:56:36;;;;;;;11.27;5.43;;;1.10;99.90;;;;;;5095350;28;20044;-68
2022/04/11 02:59:02;;;;;;;7.70;5.28;;;;;;;;;;5095075;28;20500;-69
2022/04/11 03:01:28;;;;;;;10.73;4.53;;;;;;;;;;5095423;28;20048;-67
2022/04/11 03:03:54;;;;;;;8.20;4.78;;;;;;;;;;5095393;28;20044;-67
2022/04/11 03:06:20;;;;;;;7.88;4.78;;;;;;;;;;5077164;28;20395;-67
2022/04/11 03:08:47;;;;;;;10.00;4.82;;;;;;;;;;5095262;28;20039;-67
2022/04/11 03:11:13;;;;;;;7.15;4.55;;;1.00;99.90;;;;;;5095294;28;20226;-67
2022/04/11 03:13:38;;;;;;;11.80;5.18;;;1.40;99.90;;;;;;5094862;28;20131;-68
2022/04/11 03:16:04;;;;;;;13.30;4.73;;;;;;;;;;5077012;28;20044;-68
2022/04/11 03:18:30;;;;;;;8.00;5.07;;;;;;;;;;5095071;28;20278;-68
2022/04/11 03:20:56;;;;;;;9.95;5.15;;;1.40;99.90;;;;;;5077086;28;20048;-67
2022/04/11 03:23:22;;;;;;;16.83;6.03;;;1.40;99.90;;;;;;5095071;28;20131;-68
2022/04/11 03:25:48;;;;;;;13.90;6.35;;;;;;;;;;5094912;28;20079;-67
2022/04/11 03:28:14;;;;;;;13.90;5.93;;;;;;;;;;5094913;28;20055;-68
2022/04/11 03:30:40;;;;;;;14.93;5.50;;;1.70;99.90;;;;;;5094813;28;20043;-67
2022/04/11 03:33:06;;;;;;;13.97;6.27;;;;;;;;;;5094825;28;20090;-68
2022/04/11 03:35:32;;;;;;;13.90;6.05;;;1.60;99.90;;;;;;5094420;28;20724;-68
2022/04/11 03:37:57;;;;;;;9.93;5.60;;;1.80;99.90;;;;;;5094706;28;20076;-67
2022/04/11 03:40:23;;;;;;;10.95;5.45;;;;;;;;;;5076495;28;20127;-67
2022/04/11 03:42:49;;;;;;;10.57;5.47;;;2.00;99.90;;;;;;5094563;28;20117;-67
2022/04/11 03:45:15;;;;;;;12.77;5.95;;;;;;;;;;5076523;28;20048;-67
2022/04/11 03:47:41;;;;;;;9.77;5.78;;;2.30;99.90;;;;;;5094607;28;20052;-67
2022/04/11 03:50:07;;;;;;;9.60;5.13;;;1.90;99.90;;;;;;5076602;28;20502;-67
2022/04/11 03:52:33;;;;;;;9.98;5.60;;;2.00;99.90;;;;;;5094487;28;20130;-67
2022/04/11 03:54:59;;;;;;;11.07;5.00;;;;;;;;;;5093996;28;20492;-67
2022/04/11 03:57:24;;;;;;;8.90;4.97;;;2.10;99.90;;;;;;5094342;28;20047;-67
2022/04/11 03:59:50;;;;;;;10.13;4.88;;;2.00;99.90;;;;;;5094220;28;20131;-67
2022/04/11 04:02:16;;;;;;;7.35;4.63;;;2.30;99.90;;;;;;5094195;28;20044;-69
2022/04/11 04:04:41;;;;;;;6.75;4.65;;;2.00;99.90;;;;;;5094209;28;20055;-67
2022/04/11 04:07:07;;;;;;;7.65;4.75;;;;;;;;;;5094187;28;20040;-67
2022/04/11 04:09:33;;;;;;;6.20;4.43;;;2.10;99.90;;;;;;5094156;28;20047;-67
2022/04/11 04:11:59;;;;;;;8.55;4.80;;;2.30;99.90;;;;;;5094058;28;20177;-67
2022/04/11 04:14:25;;;;;;;5.75;4.45;;;;;;;;;;5093748;28;20044;-67
2022/04/11 04:16:50;;;;;;;8.60;4.45;;;2.00;99.90;;;;;;5075569;28;20048;-67
2022/04/11 04:19:16;;;;;;;7.27;4.17;;;2.10;99.90;;;;;;5093967;28;20054;-67
2022/04/11 04:21:42;;;;;;;12.53;4.77;;;2.00;99.90;;;;;;5093873;28;20130;-67
2022/04/11 04:24:08;;;;;;;9.43;4.60;;;2.00;99.90;;;;;;5093869;28;20344;-68
2022/04/11 04:26:34;;;;;;;5.65;4.32;;;;;;;;;;5093796;28;20369;-67
2022/04/11 04:28:59;;;;;;;8.52;5.15;;;1.90;99.90;;;;;;5093622;28;20052;-67
2022/04/11 04:31:25;;;;;;;7.32;4.88;;;2.30;99.90;;;;;;5093710;28;20134;-68
2022/04/11 04:33:51;;;;;;;7.30;4.20;;;;;;;;;;5075762;28;20067;-67
2022/04/11 04:36:17;;;;;;;7.97;4.32;;;;;;;;;;5093522;28;20290;-68
2022/04/11 04:38:43;;;;;;;10.32;4.72;;;2.00;99.90;;;;;;5075472;28;20093;-68
2022/04/11 04:41:08;;;;;;;5.38;4.40;;;2.20;99.90;;;;;;5093506;28;20422;-68
2022/04/11 04:43:34;;;;;;;6.55;4.13;;;2.40;99.90;;;;;;5093548;28;20076;-67
2022/04/11 04:46:00;;;;;;;8.27;4.37;;;2.30;99.90;;;;;;5075071;28;20055;-68
2022/04/11 04:48:25;;;;;;;13.67;4.43;;;2.30;99.90;;;;;;5092914;28;20274;-68
2022/04/11 04:50:51;;;;;;;7.83;4.37;;;2.30;99.90;;;;;;5093308;28;20131;-68
2022/04/11 04:53:17;;;;;;;10.37;4.63;;;2.40;99.90;;;;;;5093374;28;20416;-67
2022/04/11 04:55:43;;;;;;;8.32;4.50;;;;;;;;;;5074934;28;20317;-68
2022/04/11 04:58:08;;;;;;;11.73;4.90;;;2.40;99.90;;;;;;5093220;28;20431;-68
2022/04/11 05:00:34;;;;;;;8.53;4.37;;;2.40;99.90;;;;;;5075267;28;20043;-68
2022/04/11 05:03:00;;;;;;;12.47;4.37;;;2.50;99.90;;;;;;5093191;28;20353;-68
2022/04/11 05:05:26;;;;;;;7.35;4.45;;;;;;;;;;5093100;28;20286;-68
2022/04/11 05:07:51;;;;;;;8.18;4.20;;;2.50;99.90;;;;;;5093101;28;20048;-68
2022/04/11 05:10:17;;;;;;;7.53;4.20;;;2.50;99.90;;;;;;5074871;28;20044;-68
2022/04/11 05:12:45;;;;;;;7.95;4.13;;;2.50;99.90;;;;;;5093046;28;20091;-68
2022/04/11 05:15:12;;;;;;;9.23;4.10;;;2.30;99.90;;;;;;5092912;28;20123;-68
2022/04/11 05:17:38;;;;;;;10.05;4.43;;;2.80;99.90;;;;;;5092997;28;20078;-68
2022/04/11 05:20:05;;;;;;;9.00;4.35;;;2.70;99.90;;;;;;5092937;28;20048;-68
2022/04/11 05:22:31;;;;;;;8.95;4.75;;;2.90;99.90;;;;;;5092894;28;20071;-68
2022/04/11 05:24:57;;;;;;;6.65;3.88;;;2.90;99.90;;;;;;5092514;28;20448;-68
2022/04/11 05:27:23;;;;;;;10.75;4.20;;;;;;;;;;5092853;28;20044;-68
2022/04/11 05:29:48;;;;;;;7.78;4.63;;;2.60;99.90;;;;;;5092699;28;20448;-68
2022/04/11 05:32:14;;;;;;;7.97;4.70;;;2.50;99.90;;;;;;5058217;28;20094;-68
2022/04/11 05:34:40;;;;;;;7.20;4.25;;;2.90;99.90;;;;;;5092730;28;20040;-68
2022/04/11 05:37:06;;;;;;;6.22;3.85;;;2.70;99.90;;;;;;5074671;28;20048;-68
2022/04/11 05:39:32;;;;;;;7.70;4.35;;;2.80;99.90;;;;;;5074661;28;20048;-68
2022/04/11 05:41:58;;;;;;;9.38;4.25;;;;;;;;;;5092630;28;20056;-68
2022/04/11 05:44:24;;;;;;;7.90;4.38;;;2.80;99.90;;;;;;5089452;28;20044;-68
2022/04/11 05:46:52;;;;;;;11.02;5.07;;;;;;;;;;5089391;28;20047;-68
2022/04/11 05:49:22;;;;;;;10.23;4.50;;;2.80;99.90;;;;;;5092627;28;20052;-68
2022/04/11 05:51:48;;;;;;;10.27;4.43;;;2.90;99.90;;;;;;5086259;28;20047;-68
2022/04/11 05:54:14;;;;;;;10.57;5.13;;;3.10;99.90;;;;;;5089360;28;20065;-69
2022/04/11 05:56:40;;;;;;;7.55;4.50;;;2.90;99.90;;;;;;5092513;28;20453;-68
2022/04/11 05:59:08;;;;;;;12.80;4.15;;;3.20;99.90;;;;;;5047390;28;20045;-68
2022/04/11 06:01:35;;;;;;;8.98;3.72;;;3.20;99.90;;;;;;5038516;28;20059;-69
2022/04/11 06:04:01;;;;;;;6.97;3.88;;;3.30;99.90;;;;;;5055783;28;20481;-69
2022/04/11 06:06:26;;;;;;;10.80;4.55;;;3.50;99.90;;;;;;5066772;28;20047;-66
2022/04/11 06:08:52;;;;;;;7.20;4.32;;;3.40;99.90;;;;;;5072944;28;20381;-69
2022/04/11 06:11:18;;;;;;;8.00;4.53;;;3.40;99.90;;;;;;5054124;28;20450;-69
2022/04/11 06:13:45;;;;;;;8.45;4.18;;;3.50;99.90;;;;;;5069114;28;20119;-67
2022/04/11 06:16:11;;;;;;;9.48;4.07;;;3.50;99.90;;;;;;5073899;28;20049;-69
2022/04/11 06:18:37;;;;;;;9.48;4.20;;;3.60;99.90;;;;;;5071353;28;20141;-68
2022/04/11 06:21:03;;;;;;;6.38;3.45;;;3.90;99.90;;;;;;5057314;28;20087;-68
2022/04/11 06:23:29;;;;;;;6.25;3.92;;;3.60;99.90;;;;;;5075588;28;20048;-70
2022/04/11 06:25:54;;;;;;;7.45;4.28;;;3.60;99.90;;;;;;5076050;28;20052;-69
2022/04/11 06:28:20;;;;;;;8.43;4.50;;;3.90;99.90;;;;;;5076001;28;20067;-69
2022/04/11 06:30:46;;;;;;;7.30;4.43;;;3.80;99.90;;;;;;5075744;28;20056;-69
2022/04/11 06:33:12;;;;;;;9.48;4.60;;;4.00;99.90;;;;;;5078628;28;20116;-69
2022/04/11 06:35:37;;;;;;;9.20;4.50;;;4.00;99.90;;;;;;5061606;28;20098;-69
2022/04/11 06:38:03;;;;;;;9.07;4.25;;;3.80;99.90;;;;;;5079148;28;20459;-69
2022/04/11 06:40:29;;;;;;;8.38;4.07;;;2.20;99.90;;;;;;5078854;28;20079;-67
2022/04/11 06:42:54;;;;;;;10.75;4.00;;;4.50;99.90;;;;;;5079419;28;20055;-69
2022/04/11 06:45:20;;;;;;;10.27;3.80;;;4.10;99.90;;;;;;5078840;28;20040;-69
2022/04/11 06:47:47;;;;;;;8.45;3.78;;;4.30;99.90;;;;;;5079609;28;20045;-69
2022/04/11 06:50:14;;;;;;;7.63;3.40;;;4.50;99.90;;;;;;5060334;28;20056;-68
2022/04/11 06:52:40;;;;;;;12.68;4.00;;;4.70;99.90;;;;;;5075403;28;20140;-68
2022/04/11 06:55:06;;;;;;;9.27;3.72;;;4.60;99.90;;;;;;5075258;28;20119;-68
2022/04/11 06:57:32;;;;;;;5.35;3.50;;;4.90;99.90;;;;;;5057602;28;20097;-68
2022/04/11 07:05:58;;;;;;;9.73;3.80;;;;;;;;;;5145947;27;1374365;-68
2022/04/11 07:08:24;;;;;;;6.88;3.70;;;5.20;99.90;;;;;;5172539;27;20051;-68
2022/04/11 07:10:49;;;;;;;5.07;3.30;;;5.30;99.90;;;;;;5136832;27;20091;-68
2022/04/11 07:13:15;;;;;;;8.52;4.10;;;5.60;99.90;;;;;;5172487;27;20046;-68
2022/04/11 07:15:40;;;;;;;9.65;3.70;;;5.30;99.90;;;;;;5153784;27;20050;-69
2022/04/11 07:18:06;;;;;;;6.65;3.40;;;5.60;99.90;;;;;;5172047;27;20050;-69
2022/04/11 07:20:32;;;;;;;5.65;3.45;;;5.70;99.90;;;;;;5172272;27;20094;-68
2022/04/11 07:22:58;;;;;;;10.15;3.60;;;5.20;99.90;;;;;;5172215;27;20134;-68
2022/04/11 07:25:24;;;;;;;7.20;3.80;;;5.40;99.90;;;;;;5171850;27;20171;-68
2022/04/11 07:27:50;;;;;;;;;;;5.60;99.90;;;;;;5172538;27;20055;-69
2022/04/11 07:30:16;;;;;;;5.55;3.38;;;5.60;99.90;;;;;;5153643;27;19925;-69
2022/04/11 07:32:42;;;;;;;;;;;5.50;99.90;;;;;;5172489;27;20505;-69
2022/04/11 07:35:08;;;;;;;7.28;3.05;;;5.70;99.90;;;;;;5171637;27;19919;-69
2022/04/11 07:37:34;;;;;;;7.10;3.10;;;5.70;99.90;;;;;;5172005;27;20046;-68
2022/04/11 07:40:03;;;;;;;6.07;3.30;;;5.90;99.90;;;;;;5153369;27;20046;-69
2022/04/11 07:42:29;;;;;;;7.60;3.17;;;5.80;99.90;;;;;;5171498;27;20077;-68
2022/04/11 07:44:54;;;;;;;8.68;3.22;;;5.80;99.90;;;;;;5171750;27;20085;-68
2022/04/11 07:47:20;;;;;;;6.07;2.90;;;5.80;99.90;;;;;;5172077;27;20462;-68
2022/04/11 07:49:46;;;;;;;6.85;3.22;;;6.10;99.90;;;;;;5153356;27;20046;-68
2022/04/11 07:52:11;;;;;;;8.13;3.03;;;6.00;99.90;;;;;;5171659;27;20045;-69
2022/04/11 07:54:37;;;;;;;5.82;2.90;;;6.60;99.90;;;;;;5171621;27;20394;-69
2022/04/11 07:57:03;;;;;;;7.53;2.85;;;6.60;99.90;;;;;;5153075;27;20053;-68
2022/04/11 07:59:29;;;;;;;7.70;3.08;;;6.20;99.90;;;;;;5171558;27;20049;-68
2022/04/11 08:01:55;;;;;;;6.05;3.03;;;6.80;99.90;;;;;;5171469;27;20482;-68
2022/04/11 08:04:21;;;;;;;7.13;2.35;;;7.10;99.90;;;;;;5171150;27;20055;-69
2022/04/11 08:06:47;;;;;;;;;;;6.80;99.90;;;;;;5153255;27;20098;-68
2022/04/11 08:09:12;;;;;;;11.15;3.03;;;7.80;99.90;;;;;;5152720;27;19963;-69
2022/04/11 08:11:38;;;;;;;5.38;2.70;;;7.40;99.90;;;;;;5152776;27;20057;-69
2022/04/11 08:14:04;;;;;;;4.35;2.40;;;7.40;99.90;;;;;;5170956;27;20046;-69
2022/04/11 08:16:29;;;;;;;5.78;2.53;;;7.50;99.90;;;;;;5162130;27;20035;-68
2022/04/11 08:18:55;;;;;;;6.80;2.53;;;7.80;99.90;;;;;;5157327;27;20133;-68
2022/04/11 08:21:21;;;;;;;5.40;2.45;;;7.90;99.90;;;;;;5157349;27;20057;-69
2022/04/11 08:23:46;;;;;;;3.25;2.00;;;8.30;99.90;;;;;;5157137;27;20403;-69
2022/04/11 08:26:12;;;;;;;6.53;2.30;;;8.70;99.90;;;;;;5157165;27;20038;-69
2022/04/11 08:28:38;;;;;;;6.85;2.60;;;7.90;99.90;;;;;;5121644;27;20103;-68
2022/04/11 08:31:03;;;;;;;6.50;2.13;;;8.50;99.90;;;;;;5138789;27;20049;-69
2022/04/11 08:33:29;;;;;;;7.38;2.72;;;8.80;99.90;;;;;;5157001;27;20095;-68
2022/04/11 08:35:55;;;;;;;6.13;1.80;;;9.20;99.90;;;;;;5156851;27;20050;-68
2022/04/11 08:38:21;;;;;;;5.40;2.10;;;8.90;99.90;;;;;;5138342;27;20057;-70
2022/04/11 08:40:46;;;;;;;5.93;1.60;;;9.40;99.90;;;;;;5156814;27;20042;-69
2022/04/11 08:43:13;;;;;;;3.85;2.00;;;10.20;99.90;;;;;;5138516;27;20169;-69
2022/04/11 08:45:39;;;;;;;2.47;1.60;;;9.00;99.90;;;;;;5156727;27;20038;-68
2022/04/11 08:48:05;;;;;;;7.65;2.28;;;8.90;99.90;;;;;;5156724;27;20038;-68
2022/04/11 08:50:31;;;;;;;4.70;1.75;;;8.40;99.90;;;;;;5156384;27;20055;-70
2022/04/11 08:52:57;;;;;;;6.00;1.83;;;9.00;99.90;;;;;;5157036;27;20053;-68
2022/04/11 08:55:23;;;;;;;3.65;1.55;;;9.50;99.90;;;;;;5138358;27;20050;-68
2022/04/11 08:57:50;;;;;;;9.05;2.25;;;9.50;99.90;;;;;;5156612;27;20050;-68
2022/04/11 09:00:20;;;;;;;3.33;1.92;;;8.90;99.90;;;;;;5156456;27;20061;-68
2022/04/11 09:02:46;;;;;;;5.20;1.98;;;9.20;99.90;;;;;;5156403;27;20046;-68
2022/04/11 09:05:18;;;;;;;4.82;2.08;;;10.50;99.90;;;;;;5155874;27;20413;-69
2022/04/11 09:07:45;;;;;;;6.40;1.85;;;9.30;99.90;;;;;;5156307;27;20566;-68
2022/04/11 09:10:11;;;;;;;4.78;1.80;;;9.50;99.90;;;;;;5156359;27;20221;-68
2022/04/11 09:12:52;;;;;;;3.45;1.67;;;9.30;99.90;;;;;;5156230;27;20045;-68
2022/04/11 09:15:19;;;;;;;7.63;2.10;;;9.20;99.90;;;;;;5156212;27;20039;-69
2022/04/11 09:17:46;;;;;;;4.90;2.33;;;10.20;99.90;;;;;;5156009;27;20050;-69
2022/04/11 09:20:15;;;;;;;6.80;1.90;;;9.50;99.90;;;;;;5153568;27;20100;-70
2022/04/11 09:22:41;;;;;;;5.07;1.63;;;9.70;99.90;;;;;;5155365;27;20057;-68
2022/04/11 09:25:21;;;;;;;4.38;1.67;;;10.20;99.90;;;;;;5155910;27;20035;-68
2022/04/11 09:27:48;;;;;;;6.97;1.75;;;9.80;99.90;;;;;;5154971;27;20055;-68
2022/04/11 09:30:27;;;;;;;7.88;2.13;;;9.90;99.90;;;;;;5155970;27;20462;-68
2022/04/11 09:32:56;;;;;;;7.63;1.80;;;9.80;99.90;;;;;;5155876;27;20042;-68
2022/04/11 09:35:23;;;;;;;6.40;2.10;;;10.20;99.90;;;;;;5155766;27;20047;-70
2022/04/11 09:38:10;;;;;;;6.65;2.20;;;10.30;99.90;;;;;;5155766;27;20121;-68
2022/04/11 09:40:48;;;;;;;6.40;1.80;;;10.40;99.90;;;;;;5155784;27;20047;-68
2022/04/11 09:43:16;;;;;;;5.68;2.08;;;10.80;99.90;;;;;;5155728;27;20134;-68
2022/04/11 09:45:47;;;;;;;4.68;1.70;;;10.90;99.90;;;;;;5155549;27;20082;-69
2022/04/11 09:48:19;;;;;;;5.32;1.73;;;10.60;99.90;;;;;;5155524;27;20049;-68
2022/04/11 09:50:45;;;;;;;4.18;1.55;;;10.80;99.90;;;;;;5155449;27;20133;-68
2022/04/11 09:53:19;;;;;;;3.65;1.50;;;12.10;99.90;;;;;;5155441;27;20046;-68
2022/04/11 09:55:47;;;;;;;2.85;1.30;;;10.70;99.90;;;;;;5155407;27;20091;-68
2022/04/11 09:58:13;;;;;;;2.80;1.48;;;10.80;99.90;;;;;;5155368;27;20046;-69
2022/04/11 10:00:40;;;;;;;;;;;11.00;99.90;;;;;;5137427;27;20053;-68
2022/04/11 10:03:06;;;;;;;2.85;1.48;;;11.30;99.90;;;;;;5155289;27;19919;-68
2022/04/11 10:05:33;;;;;;;3.88;1.90;;;11.00;99.90;;;;;;5154763;27;20078;-69
2022/04/11 10:08:01;;;;;;;3.38;1.73;;;11.50;99.90;;;;;;5155222;27;20050;-68
2022/04/11 10:10:28;;;;;;;5.07;1.60;;;11.30;99.90;;;;;;5155106;27;20069;-69
2022/04/11 10:12:57;;;;;;;3.63;1.60;;;12.00;99.90;;;;;;5155115;27;20038;-68
2022/04/11 10:15:23;;;;;;;7.00;2.08;;;11.60;99.90;;;;;;5155052;27;20157;-66
2022/04/11 10:17:51;;;;;;;4.22;1.80;;;11.40;99.90;;;;;;5155079;27;20038;-66
2022/04/11 10:20:25;;;;;;;5.32;2.20;;;12.20;99.90;;;;;;5154972;27;20046;-66
2022/04/11 10:23:10;;;;;;;3.08;1.70;;;11.70;99.90;;;;;;5154917;27;20066;-68
2022/04/11 10:25:50;;;;;;;4.10;1.92;;;11.10;99.90;;;;;;5154806;27;20129;-66
2022/04/11 10:28:25;;;;;;;5.38;1.90;;;13.70;99.90;;;;;;5154835;27;20043;-66
2022/04/11 10:31:11;;;;;;;5.55;1.95;;;11.80;99.90;;;;;;5154831;27;20046;-66
2022/04/11 10:33:54;;;;;;;6.75;2.35;;;12.00;99.90;;;;;;5154760;27;20055;-67
2022/04/11 10:36:38;;;;;;;4.22;2.08;;;11.80;99.90;;;;;;5154441;27;20498;-66
2022/04/11 10:39:16;;;;;;;6.82;2.35;;;11.90;99.90;;;;;;5154413;27;20043;-66
2022/04/11 10:41:57;;;;;;;6.70;2.35;;;12.20;99.90;;;;;;5154535;27;20053;-66
2022/04/11 10:44:31;;;;;;;4.68;2.20;;;12.30;99.90;;;;;;5154534;27;20047;-67
2022/04/11 10:47:09;;;;;;;9.20;2.22;;;12.40;99.90;;;;;;5136041;27;20091;-68
2022/04/11 10:49:50;;;;;;;6.07;2.10;;;13.50;99.90;;;;;;5154551;27;20057;-66
2022/04/11 10:52:38;;;;;;;4.60;2.15;;;12.70;99.90;;;;;;5135743;27;20039;-66
2022/04/11 10:55:05;;;;;;;7.30;2.42;;;12.70;99.90;;;;;;5147218;27;20761;-66
2022/04/11 10:57:34;;;;;;;5.60;2.40;;;14.00;99.90;;;;;;5150930;27;20439;-66
2022/04/11 11:00:17;;;;;;;4.38;2.55;;;12.50;99.90;;;;;;5152856;27;20057;-66
2022/04/11 11:02:56;;;;;;;6.95;2.38;;;12.80;99.90;;;;;;5152439;27;20176;-66
2022/04/11 11:05:23;;;;;;;3.08;2.00;;;12.40;99.90;;;;;;5151202;27;20057;-66
2022/04/11 11:07:49;;;;;;;6.65;2.30;;;12.70;99.90;;;;;;5151893;27;20054;-66
2022/04/11 11:10:27;;;;;;;6.20;2.63;;;12.70;99.90;;;;;;5132897;27;20404;-66
2022/04/11 11:13:12;;;;;;;3.92;2.40;;;12.50;99.90;;;;;;5152894;27;20081;-67
2022/04/11 11:15:38;;;;;;;7.32;3.05;;;13.70;99.90;;;;;;5146836;27;20371;-66
2022/04/11 11:18:04;;;;;;;5.60;2.63;;;12.80;99.90;;;;;;5134373;27;20043;-66
2022/04/11 11:20:47;;;;;;;4.30;2.47;;;12.70;99.90;;;;;;5153166;27;20046;-66
2022/04/11 11:23:15;;;;;;;6.40;2.83;;;12.60;99.90;;;;;;5116221;27;20107;-67
2022/04/11 11:25:41;;;;;;;7.28;2.80;;;12.70;99.90;;;;;;5152150;27;20045;-66
2022/04/11 11:28:10;;;;;;;5.45;2.60;;;12.90;99.90;;;;;;5134612;27;20386;-66
2022/04/11 11:30:37;;;;;;;4.72;2.80;;;13.00;99.90;;;;;;5148780;27;20039;-67
2022/04/11 11:33:03;;;;;;;6.32;2.67;;;12.80;99.90;;;;;;5153281;27;20456;-64
2022/04/11 11:35:28;;;;;;;6.90;2.90;;;13.30;99.90;;;;;;5154005;27;20169;-64
2022/04/11 11:38:06;;;;;;;5.75;3.10;;;12.70;99.90;;;;;;5153722;27;20463;-65
2022/04/11 11:40:33;;;;;;;6.28;3.20;;;13.00;99.90;;;;;;5135059;27;20043;-64
2022/04/11 11:42:58;;;;;;;;;;;12.80;99.90;;;;;;5154056;27;20065;-64
2022/04/11 11:45:27;;;;;;;6.75;3.28;;;12.60;99.90;;;;;;5153655;27;19923;-64
2022/04/11 11:47:53;;;;;;;7.82;3.10;;;12.80;99.90;;;;;;5135094;27;20418;-65
2022/04/11 11:50:19;;;;;;;7.70;3.45;;;13.10;99.90;;;;;;5153673;27;20043;-65
2022/04/11 11:52:57;;;;;;;4.75;3.08;;;13.20;99.90;;;;;;5157244;27;20042;-64
2022/04/11 11:55:23;;;;;;;6.10;3.20;;;13.30;99.90;;;;;;5157104;27;20058;-67
2022/04/11 11:58:03;;;;;;;8.32;3.53;;;13.40;99.90;;;;;;5157852;27;20065;-65
2022/04/11 12:00:34;;;;;;;7.07;3.60;;;13.40;99.90;;;;;;5157797;27;20034;-66
2022/04/11 12:05:45;;;;;;;7.07;3.67;;;13.50;99.90;;;;;;5157564;27;20057;-66
2022/04/11 12:08:14;;;;;;;;;;;13.10;99.90;;;;;;5157922;27;20046;-66
2022/04/11 12:10:44;;;;;;;5.82;3.13;;;13.20;99.90;;;;;;5157468;27;19918;-65
2022/04/11 12:13:11;;;;;;;7.22;3.40;;;13.60;99.90;;;;;;5157365;27;20050;-65
2022/04/11 12:15:37;;;;;;;7.25;3.15;;;13.50;99.90;;;;;;5157383;27;20041;-66
2022/04/11 12:18:08;;;;;;;7.72;4.13;;;14.10;99.90;;;;;;5157350;27;20054;-66
2022/04/11 12:20:35;;;;;;;7.50;3.95;;;13.50;99.90;;;;;;5157312;27;20046;-66
2022/04/11 12:23:15;;;;;;;7.90;3.38;;;13.70;99.90;;;;;;5138709;27;20086;-65
2022/04/11 12:25:42;;;;;;;7.75;3.92;;;13.50;99.90;;;;;;5157114;27;20050;-66
2022/04/11 12:28:26;;;;;;;7.50;3.33;;;13.90;99.90;;;;;;5138924;27;20086;-65
2022/04/11 12:31:05;;;;;;;8.27;3.65;;;13.70;99.90;;;;;;5157153;27;20049;-66
2022/04/11 12:33:42;;;;;;;7.07;3.92;;;13.90;99.90;;;;;;5157072;27;20050;-66
2022/04/11 12:36:16;;;;;;;6.15;3.50;;;13.30;99.90;;;;;;5157057;27;20053;-65
2022/04/11 12:38:47;;;;;;;7.93;3.72;;;13.40;99.90;;;;;;5156986;27;20042;-66
2022/04/11 12:41:36;;;;;;;6.85;4.63;;;14.10;99.90;;;;;;5138380;27;20047;-66
2022/04/11 12:44:41;;;;;;;6.00;3.40;;;13.90;99.90;;;;;;5156782;27;20088;-66
2022/04/11 12:47:09;;;;;;;7.25;3.83;;;13.90;99.90;;;;;;5099473;27;20088;-66
2022/04/11 12:49:52;;;;;;;6.72;4.55;;;13.70;99.90;;;;;;5156759;27;20118;-66
2022/04/11 12:52:23;;;;;;;7.43;3.60;;;14.10;98.40;;;;;;5156764;27;20042;-66
2022/04/11 12:54:51;;;;;;;7.28;3.22;;;13.80;99.70;;;;;;5156709;27;20038;-65
2022/04/11 12:57:22;;;;;;;6.30;3.28;;;14.10;99.90;;;;;;5156320;27;20440;-66
2022/04/11 12:59:49;;;;;;;8.68;3.55;;;14.00;99.90;;;;;;5156554;27;20126;-66
2022/04/11 13:02:19;;;;;;;6.80;4.00;;;13.90;99.90;;;;;;5156498;27;20397;-66
2022/04/11 13:04:52;;;;;;;7.68;3.65;;;14.20;99.90;;;;;;5137773;27;20059;-66
2022/04/11 13:07:19;;;;;;;5.90;3.50;;;14.60;99.90;;;;;;5156424;27;20050;-65
2022/04/11 13:09:46;;;;;;;5.25;3.55;;;14.30;99.90;;;;;;5156395;27;20050;-66
2022/04/11 13:12:14;;;;;;;5.65;3.28;;;14.50;99.90;;;;;;5156258;27;20043;-66
2022/04/11 13:14:43;;;;;;;6.20;3.60;;;14.90;99.90;;;;;;5137689;27;20053;-66
2022/04/11 13:19:54;;;;;;;7.53;3.58;;;14.80;99.90;;;;;;5156195;27;20050;-66
2022/04/11 13:22:21;;;;;;;7.18;3.65;;;15.00;99.90;;;;;;5156090;27;20046;-66
2022/04/11 13:24:48;;;;;;;6.88;3.30;;;15.20;99.90;;;;;;5155522;27;20432;-66